createdAt,value
2023-12-24T00:01:13.871Z,80.70
2023-12-24T00:05:16.804Z,80.60
2023-12-24T00:09:19.675Z,80.60
2023-12-24T00:13:22.904Z,80.60
2023-12-24T00:17:26.061Z,80.60
2023-12-24T00:21:28.927Z,80.50
2023-12-24T00:25:31.678Z,80.40
2023-12-24T00:29:34.525Z,80.30
2023-12-24T00:33:37.461Z,80.20
2023-12-24T00:37:40.291Z,80.30
2023-12-24T00:41:43.182Z,80.20
2023-12-24T00:45:46.012Z,80.20
2023-12-24T00:49:48.836Z,80.10
2023-12-24T00:53:51.618Z,80.20
2023-12-24T00:57:54.396Z,80.20
2023-12-24T01:01:57.392Z,80.20
2023-12-24T01:06:00.586Z,80.30
2023-12-24T01:10:04.074Z,80.30
2023-12-24T01:14:06.860Z,80.40
2023-12-24T01:18:10.311Z,80.50
2023-12-24T01:22:13.205Z,80.50
2023-12-24T01:26:16.194Z,80.50
2023-12-24T01:30:19.177Z,80.50
2023-12-24T01:34:22.007Z,80.50
2023-12-24T01:38:25.278Z,80.50
2023-12-24T01:42:28.140Z,80.50
2023-12-24T01:46:32.308Z,80.50
2023-12-24T01:50:37.516Z,80.50
2023-12-24T01:54:40.861Z,80.50
2023-12-24T01:58:44.309Z,80.50
2023-12-24T02:02:49.166Z,80.20
2023-12-24T02:06:52.542Z,79.80
2023-12-24T02:10:56.106Z,79.80
2023-12-24T02:14:59.192Z,79.90
2023-12-24T02:19:02.429Z,79.90
2023-12-24T02:23:06.409Z,79.80
2023-12-24T02:27:37.914Z,79.70
2023-12-24T02:31:46.488Z,79.60
2023-12-24T02:35:50.773Z,79.60
2023-12-24T02:39:53.849Z,79.70
2023-12-24T02:43:56.750Z,79.90
2023-12-24T02:47:59.916Z,80.00
2023-12-24T02:52:03.094Z,80.20
2023-12-24T02:56:06.152Z,80.20
2023-12-24T03:00:14.145Z,80.20
2023-12-24T03:04:18.443Z,80.00
2023-12-24T03:08:22.575Z,80.10
2023-12-24T03:12:26.038Z,80.40
2023-12-24T03:16:28.948Z,80.50
2023-12-24T03:20:32.088Z,80.60
2023-12-24T03:24:34.973Z,81.10
2023-12-24T03:28:37.759Z,81.20
2023-12-24T03:32:40.758Z,81.30
2023-12-24T03:36:43.694Z,81.40
2023-12-24T03:40:46.473Z,81.20
2023-12-24T03:44:49.474Z,81.20
2023-12-24T03:48:52.349Z,81.10
2023-12-24T03:52:57.185Z,81.00
2023-12-24T03:57:01.612Z,80.90
2023-12-24T04:01:09.841Z,80.80
2023-12-24T04:05:12.894Z,80.70
2023-12-24T04:09:15.805Z,80.60
2023-12-24T04:13:18.654Z,80.50
2023-12-24T04:17:21.592Z,80.50
2023-12-24T04:21:24.436Z,80.40
2023-12-24T04:25:27.619Z,80.40
2023-12-24T04:29:30.692Z,80.20
2023-12-24T04:33:34.148Z,80.10
2023-12-24T04:37:37.660Z,80.00
2023-12-24T04:41:40.653Z,80.00
2023-12-24T04:45:44.017Z,79.90
2023-12-24T04:49:46.867Z,79.90
2023-12-24T04:53:49.585Z,79.80
2023-12-24T04:57:52.374Z,79.80
2023-12-24T05:01:55.542Z,79.70
2023-12-24T05:06:00.771Z,79.70
2023-12-24T05:10:03.752Z,79.80
2023-12-24T05:14:06.697Z,79.70
2023-12-24T05:18:10.467Z,79.70
2023-12-24T05:22:13.383Z,79.70
2023-12-24T05:26:16.802Z,79.70
2023-12-24T05:30:19.823Z,79.70
2023-12-24T05:34:22.763Z,79.70
2023-12-24T05:38:25.834Z,79.80
2023-12-24T05:42:28.724Z,79.80
2023-12-24T05:46:31.557Z,79.80
2023-12-24T05:50:34.497Z,79.90
2023-12-24T05:54:37.487Z,79.90
2023-12-24T05:58:40.962Z,80.10
2023-12-24T06:02:44.039Z,80.10
2023-12-24T06:06:46.879Z,80.10
2023-12-24T06:10:50.228Z,80.10
2023-12-24T06:14:52.996Z,80.20
2023-12-24T06:18:56.490Z,80.10
2023-12-24T06:23:00.620Z,80.20
2023-12-24T06:27:03.878Z,80.20
2023-12-24T06:31:06.684Z,80.20
2023-12-24T06:35:11.648Z,80.20
2023-12-24T06:39:14.736Z,80.20
2023-12-24T06:43:17.565Z,80.20
2023-12-24T06:47:20.467Z,80.10
2023-12-24T06:51:23.366Z,80.00
2023-12-24T06:55:26.259Z,79.90
2023-12-24T06:59:28.988Z,79.80
2023-12-24T07:03:31.939Z,79.60
2023-12-24T07:07:35.116Z,79.60
2023-12-24T07:11:38.172Z,79.50
2023-12-24T07:15:43.582Z,79.40
2023-12-24T07:19:46.432Z,79.30
2023-12-24T07:23:49.678Z,79.20
2023-12-24T07:27:52.528Z,79.10
2023-12-24T07:31:55.242Z,79.00
2023-12-24T07:35:58.101Z,78.90
2023-12-24T07:40:00.875Z,78.90
2023-12-24T07:44:03.975Z,78.80
2023-12-24T07:48:09.740Z,78.70
2023-12-24T07:52:13.041Z,78.70
2023-12-24T07:56:15.929Z,78.60
2023-12-24T08:00:19.295Z,78.60
2023-12-24T08:04:22.250Z,78.60
2023-12-24T08:08:25.218Z,78.50
2023-12-24T08:12:28.082Z,78.50
2023-12-24T08:16:33.500Z,78.40
2023-12-24T08:20:36.499Z,78.40
2023-12-24T08:24:39.697Z,78.40
2023-12-24T08:28:43.111Z,78.40
2023-12-24T08:32:46.883Z,78.40
2023-12-24T08:36:50.306Z,78.40
2023-12-24T08:40:53.072Z,78.30
2023-12-24T08:44:55.834Z,78.10
2023-12-24T08:48:59.254Z,78.00
2023-12-24T08:53:02.136Z,77.90
2023-12-24T08:57:08.945Z,77.70
2023-12-24T09:01:12.052Z,77.50
2023-12-24T09:05:15.672Z,77.30
2023-12-24T09:09:20.513Z,76.90
2023-12-24T09:13:23.483Z,76.50
2023-12-24T09:17:26.571Z,76.20
2023-12-24T09:21:34.868Z,75.80
2023-12-24T09:25:37.816Z,75.50
2023-12-24T09:29:40.967Z,75.30
2023-12-24T09:33:43.930Z,75.30
2023-12-24T09:37:46.824Z,75.40
2023-12-24T09:41:51.022Z,75.00
2023-12-24T09:45:54.799Z,74.80
2023-12-24T09:50:02.175Z,75.00
2023-12-24T09:54:06.692Z,74.20
2023-12-24T09:58:09.661Z,74.00
2023-12-24T10:02:12.564Z,73.30
2023-12-24T10:06:16.183Z,72.90
2023-12-24T10:10:30.755Z,72.60
2023-12-24T10:14:34.047Z,72.20
2023-12-24T10:18:48.141Z,71.60
2023-12-24T10:22:52.563Z,71.40
2023-12-24T10:27:09.418Z,70.70
2023-12-24T10:31:12.302Z,69.60
2023-12-24T10:35:24.460Z,69.60
2023-12-24T10:39:27.995Z,69.70
2023-12-24T10:43:32.729Z,69.80
2023-12-24T10:47:36.791Z,69.60
2023-12-24T10:51:43.487Z,69.90
2023-12-24T10:56:07.787Z,70.10
2023-12-24T11:00:17.072Z,70.20
2023-12-24T11:04:42.298Z,70.50
2023-12-24T11:08:45.654Z,70.70
2023-12-24T11:12:57.940Z,70.80
2023-12-24T11:17:07.532Z,70.90
2023-12-24T11:21:24.003Z,70.70
2023-12-24T11:25:39.334Z,70.80
2023-12-24T11:29:42.405Z,70.80
2023-12-24T11:33:49.200Z,71.00
2023-12-24T11:37:52.152Z,70.90
2023-12-24T11:41:55.431Z,70.80
2023-12-24T11:45:59.118Z,70.80
2023-12-24T11:50:04.888Z,70.70
2023-12-24T11:54:08.469Z,70.00
2023-12-24T11:58:12.024Z,70.20
2023-12-24T12:02:15.825Z,70.20
2023-12-24T12:06:20.487Z,69.80
2023-12-24T12:10:23.836Z,69.50
2023-12-24T12:14:26.724Z,68.50
2023-12-24T12:18:29.732Z,67.70
2023-12-24T12:22:32.563Z,67.40
2023-12-24T12:26:35.505Z,67.20
2023-12-24T12:30:40.276Z,66.70
2023-12-24T12:34:44.926Z,66.70
2023-12-24T12:38:48.270Z,66.40
2023-12-24T12:42:51.219Z,66.20
2023-12-24T12:46:54.109Z,65.80
2023-12-24T12:50:57.742Z,65.50
2023-12-24T12:55:10.036Z,65.10
2023-12-24T12:59:35.295Z,65.00
2023-12-24T13:03:58.336Z,64.60
2023-12-24T13:08:12.616Z,63.90
2023-12-24T13:12:20.509Z,63.80
2023-12-24T13:16:23.833Z,63.80
2023-12-24T13:20:28.470Z,64.10
2023-12-24T13:24:33.782Z,64.10
2023-12-24T13:28:41.919Z,64.20
2023-12-24T13:32:44.947Z,64.20
2023-12-24T13:36:48.623Z,64.30
2023-12-24T13:40:53.251Z,64.60
2023-12-24T13:44:56.188Z,64.70
2023-12-24T13:48:59.122Z,64.90
2023-12-24T13:53:15.000Z,65.10
2023-12-24T13:57:27.022Z,65.30
2023-12-24T14:01:29.929Z,65.60
2023-12-24T14:05:32.850Z,65.70
2023-12-24T14:09:35.707Z,65.90
2023-12-24T14:13:39.311Z,66.10
2023-12-24T14:17:42.227Z,66.20
2023-12-24T14:21:44.987Z,66.30
2023-12-24T14:25:47.818Z,66.50
2023-12-24T14:29:50.673Z,66.60
2023-12-24T14:33:53.602Z,66.80
2023-12-24T14:37:57.046Z,66.80
2023-12-24T14:42:00.236Z,67.00
2023-12-24T14:46:04.124Z,67.00
2023-12-24T14:50:11.354Z,67.20
2023-12-24T14:54:17.662Z,67.30
2023-12-24T14:58:20.868Z,67.40
2023-12-24T15:02:26.572Z,67.50
2023-12-24T15:06:29.670Z,67.70
2023-12-24T15:10:33.802Z,67.80
2023-12-24T15:14:37.568Z,68.00
2023-12-24T15:18:41.332Z,68.10
2023-12-24T15:22:44.589Z,68.20
2023-12-24T15:26:47.665Z,68.30
2023-12-24T15:30:51.793Z,68.40
2023-12-24T15:34:58.081Z,68.40
2023-12-24T15:43:50.369Z,68.60
2023-12-24T15:47:53.713Z,68.70
2023-12-24T15:51:57.393Z,68.80
2023-12-24T15:56:01.014Z,68.80
2023-12-24T16:00:08.023Z,68.80
2023-12-24T16:04:13.774Z,69.00
2023-12-24T16:08:17.246Z,69.00
2023-12-24T16:12:23.116Z,69.10
2023-12-24T16:16:26.292Z,69.10
2023-12-24T16:20:29.408Z,69.20
2023-12-24T16:24:33.213Z,69.30
2023-12-24T16:28:36.308Z,69.50
2023-12-24T16:32:42.691Z,69.70
2023-12-24T16:36:48.559Z,69.80
2023-12-24T16:40:55.168Z,69.70
2023-12-24T16:45:03.094Z,69.90
2023-12-24T16:49:08.972Z,69.90
2023-12-24T16:53:12.000Z,70.00
2023-12-24T16:57:18.171Z,70.10
2023-12-24T17:01:21.836Z,70.30
2023-12-24T17:05:26.951Z,70.40
2023-12-24T17:09:41.138Z,70.60
2023-12-24T17:13:46.049Z,70.60
2023-12-24T17:17:59.229Z,70.60
2023-12-24T17:22:02.566Z,70.60
2023-12-24T17:26:11.511Z,70.70
2023-12-24T17:30:17.579Z,70.70
2023-12-24T17:34:21.267Z,70.90
2023-12-24T17:38:26.992Z,70.90
2023-12-24T17:42:31.085Z,71.00
2023-12-24T17:46:35.172Z,71.10
2023-12-24T17:50:38.075Z,71.10
2023-12-24T17:54:43.193Z,71.10
2023-12-24T17:58:47.863Z,71.10
2023-12-24T18:02:51.055Z,71.10
2023-12-24T18:06:54.122Z,71.10
2023-12-24T18:10:57.026Z,71.20
2023-12-24T18:15:01.505Z,71.20
2023-12-24T18:19:05.745Z,71.20
2023-12-24T18:23:12.325Z,71.30
2023-12-24T18:27:17.068Z,71.40
2023-12-24T18:31:20.678Z,71.50
2023-12-24T18:35:24.061Z,71.60
2023-12-24T18:39:27.111Z,71.60
2023-12-24T18:43:30.156Z,71.70
2023-12-24T18:47:33.250Z,71.70
2023-12-24T18:51:36.194Z,71.70
2023-12-24T18:55:39.189Z,71.80
2023-12-24T18:59:42.202Z,71.70
2023-12-24T19:03:45.710Z,71.80
2023-12-24T19:07:49.145Z,71.80
2023-12-24T19:11:52.078Z,71.80
2023-12-24T19:15:54.938Z,71.80
2023-12-24T19:19:57.806Z,71.80
2023-12-24T19:24:00.851Z,71.90
2023-12-24T19:28:04.373Z,72.00
2023-12-24T19:32:07.454Z,72.10
2023-12-24T19:36:11.138Z,72.20
2023-12-24T19:40:14.322Z,72.20
2023-12-24T19:44:17.488Z,72.20
2023-12-24T19:48:20.520Z,72.20
2023-12-24T19:56:29.234Z,72.50
2023-12-24T20:00:32.213Z,72.60
2023-12-24T20:04:38.959Z,72.70
2023-12-24T20:08:42.010Z,72.80
2023-12-24T20:12:45.004Z,72.70
2023-12-24T20:16:48.457Z,73.00
2023-12-24T20:20:51.709Z,73.10
2023-12-24T20:24:55.672Z,73.10
2023-12-24T20:29:01.753Z,73.00
2023-12-24T20:33:09.201Z,73.00
2023-12-24T20:37:12.217Z,73.10
2023-12-24T20:41:15.108Z,73.20
2023-12-24T20:45:18.025Z,73.40
2023-12-24T20:49:20.956Z,73.50
2023-12-24T20:53:24.025Z,73.60
2023-12-24T20:57:27.567Z,73.70
2023-12-24T21:01:33.157Z,73.70
2023-12-24T21:05:39.073Z,73.70
2023-12-24T21:09:45.209Z,73.70
2023-12-24T21:13:48.415Z,73.80
2023-12-24T21:17:53.240Z,73.80
2023-12-24T21:21:56.138Z,73.80
2023-12-24T21:25:59.061Z,73.80
2023-12-24T21:30:01.934Z,73.90
2023-12-24T21:34:05.162Z,73.80
2023-12-24T21:38:08.005Z,73.80
2023-12-24T21:42:11.113Z,73.70
2023-12-24T21:46:13.984Z,73.60
2023-12-24T21:50:17.253Z,73.60
2023-12-24T21:54:20.078Z,73.50
2023-12-24T21:58:23.238Z,73.40
2023-12-24T22:02:26.102Z,73.30
2023-12-24T22:06:29.124Z,73.20
2023-12-24T22:10:32.001Z,73.10
2023-12-24T22:14:35.416Z,73.00
2023-12-24T22:18:38.576Z,72.90
2023-12-24T22:22:41.364Z,72.80
2023-12-24T22:26:44.306Z,72.60
2023-12-24T22:30:47.371Z,72.60
2023-12-24T22:34:50.271Z,72.60
2023-12-24T22:38:56.282Z,72.50
2023-12-24T22:43:00.623Z,72.40
2023-12-24T22:47:03.802Z,72.40
2023-12-24T22:51:09.946Z,72.30
2023-12-24T22:55:12.844Z,72.20
2023-12-24T22:59:15.845Z,72.10
2023-12-24T23:03:18.810Z,72.10
2023-12-24T23:07:26.344Z,72.00
2023-12-24T23:11:30.189Z,71.90
2023-12-24T23:15:32.979Z,71.80
2023-12-24T23:19:35.896Z,71.80
2023-12-24T23:23:40.210Z,71.70
2023-12-24T23:27:43.044Z,71.70
2023-12-24T23:31:46.033Z,71.70
2023-12-24T23:35:57.628Z,71.60
2023-12-24T23:40:18.548Z,71.60
2023-12-24T23:44:21.451Z,71.60
2023-12-24T23:48:24.415Z,71.60
2023-12-24T23:52:27.294Z,71.50
2023-12-24T23:56:30.186Z,71.50
